createdAt,value
2022-09-27T00:02:31.633Z,0.38
2022-09-27T00:05:33.409Z,0.47
2022-09-27T00:08:37.211Z,0.47
2022-09-27T00:11:42.586Z,0.47
2022-09-27T00:14:44.368Z,0.50
2022-09-27T00:17:46.217Z,0.50
2022-09-27T00:20:47.955Z,0.40
2022-09-27T00:23:49.719Z,0.40
2022-09-27T00:26:51.570Z,0.55
2022-09-27T00:29:53.701Z,0.35
2022-09-27T00:32:55.681Z,0.57
2022-09-27T00:36:04.732Z,0.38
2022-09-27T00:39:06.556Z,0.40
2022-09-27T00:42:12.738Z,0.60
2022-09-27T00:45:17.813Z,0.30
2022-09-27T00:48:24.511Z,0.40
2022-09-27T00:51:27.031Z,0.93
2022-09-27T00:54:30.755Z,0.38
2022-09-27T00:57:33.119Z,0.35
2022-09-27T01:00:38.004Z,0.50
2022-09-27T01:03:54.933Z,0.50
2022-09-27T01:06:56.872Z,0.20
2022-09-27T01:09:59.042Z,0.60
2022-09-27T01:13:09.954Z,0.30
2022-09-27T01:16:30.051Z,0.60
2022-09-27T01:20:07.253Z,0.38
2022-09-27T01:23:37.135Z,0.45
2022-09-27T01:26:53.920Z,0.70
2022-09-27T01:29:58.679Z,0.45
2022-09-27T01:33:29.983Z,0.30
2022-09-27T01:36:37.475Z,0.60
2022-09-27T01:43:12.115Z,0.47
2022-09-27T01:46:23.683Z,0.47
2022-09-27T01:50:02.607Z,0.63
2022-09-27T01:53:16.081Z,0.40
2022-09-27T01:56:52.245Z,0.60
2022-09-27T02:00:07.826Z,0.47
2022-09-27T02:03:21.698Z,0.40
2022-09-27T02:06:48.002Z,0.57
2022-09-27T02:10:10.499Z,0.35
2022-09-27T02:13:38.121Z,0.40
2022-09-27T02:17:09.184Z,0.77
2022-09-27T02:20:20.343Z,0.40
2022-09-27T02:23:41.468Z,0.40
2022-09-27T02:26:55.148Z,0.40
2022-09-27T02:30:08.608Z,0.20
2022-09-27T02:33:11.832Z,0.35
2022-09-27T02:36:14.110Z,0.30
2022-09-27T02:39:18.061Z,0.45
2022-09-27T02:42:19.960Z,0.40
2022-09-27T02:45:22.216Z,0.80
2022-09-27T02:48:42.728Z,0.32
2022-09-27T02:52:17.490Z,0.70
2022-09-27T02:55:49.627Z,0.43
2022-09-27T02:59:22.176Z,0.45
2022-09-27T03:02:51.238Z,0.50
2022-09-27T03:06:13.645Z,0.47
2022-09-27T03:09:19.548Z,0.65
2022-09-27T03:12:28.070Z,0.25
2022-09-27T03:15:29.947Z,0.50
2022-09-27T03:18:37.605Z,0.40
2022-09-27T03:21:57.864Z,0.60
2022-09-27T03:25:00.055Z,0.40
2022-09-27T03:28:02.173Z,0.30
2022-09-27T03:31:04.720Z,0.35
2022-09-27T03:34:30.213Z,0.43
2022-09-27T03:37:32.053Z,0.45
2022-09-27T03:40:34.210Z,0.40
2022-09-27T03:43:36.062Z,0.32
2022-09-27T03:46:39.117Z,0.40
2022-09-27T03:49:41.177Z,0.35
2022-09-27T03:52:43.810Z,0.30
2022-09-27T03:55:46.221Z,0.20
2022-09-27T03:58:48.471Z,0.30
2022-09-27T04:01:50.574Z,0.40
2022-09-27T04:05:12.425Z,0.35
2022-09-27T04:08:14.340Z,0.40
2022-09-27T04:11:17.614Z,0.40
2022-09-27T04:14:21.002Z,0.40
2022-09-27T04:17:43.094Z,0.60
2022-09-27T04:21:07.836Z,0.73
2022-09-27T04:24:12.012Z,0.30
2022-09-27T04:27:17.430Z,0.40
2022-09-27T04:30:19.768Z,0.50
2022-09-27T04:33:30.656Z,0.38
2022-09-27T04:36:42.032Z,0.40
2022-09-27T04:39:49.280Z,0.30
2022-09-27T04:42:51.984Z,0.40
2022-09-27T04:45:53.941Z,0.65
2022-09-27T04:48:55.846Z,0.60
2022-09-27T04:51:57.691Z,0.38
2022-09-27T04:54:59.467Z,0.40
2022-09-27T04:58:01.685Z,0.40
2022-09-27T05:01:04.914Z,0.50
2022-09-27T05:04:25.454Z,0.32
2022-09-27T05:07:29.647Z,0.50
2022-09-27T05:10:37.827Z,0.50
2022-09-27T05:13:39.651Z,0.30
2022-09-27T05:16:41.519Z,0.40
2022-09-27T05:20:10.665Z,0.40
2022-09-27T05:23:17.537Z,0.32
2022-09-27T05:26:19.293Z,0.50
2022-09-27T05:29:21.132Z,0.50
2022-09-27T05:32:43.751Z,0.65
2022-09-27T05:36:02.154Z,0.40
2022-09-27T05:39:07.097Z,0.50
2022-09-27T05:42:10.364Z,0.50
2022-09-27T05:45:12.649Z,0.35
2022-09-27T05:48:14.683Z,0.20
2022-09-27T05:51:36.749Z,0.50
2022-09-27T05:54:39.405Z,0.50
2022-09-27T05:57:41.238Z,0.47
2022-09-27T06:00:44.058Z,0.50
2022-09-27T06:04:05.912Z,0.30
2022-09-27T06:07:29.582Z,0.50
2022-09-27T06:10:32.503Z,0.57
2022-09-27T06:13:36.461Z,0.50
2022-09-27T06:16:38.743Z,0.50
2022-09-27T06:19:41.037Z,0.50
2022-09-27T06:22:43.218Z,0.40
2022-09-27T06:25:46.872Z,0.35
2022-09-27T06:28:54.855Z,0.50
2022-09-27T06:31:57.902Z,0.35
2022-09-27T06:35:25.622Z,0.63
2022-09-27T06:38:27.493Z,0.93
2022-09-27T06:41:52.859Z,0.40
2022-09-27T06:45:20.760Z,0.32
2022-09-27T06:48:40.936Z,0.35
2022-09-27T06:51:50.634Z,0.50
2022-09-27T06:54:52.464Z,0.50
2022-09-27T06:58:31.869Z,0.63
2022-09-27T07:02:00.547Z,0.70
2022-09-27T07:05:25.853Z,0.50
2022-09-27T07:08:38.592Z,0.70
2022-09-27T07:11:41.460Z,0.70
2022-09-27T07:14:43.230Z,0.60
2022-09-27T07:21:01.768Z,0.60
2022-09-27T07:24:05.030Z,0.80
2022-09-27T07:27:08.588Z,1.00
2022-09-27T07:30:11.998Z,1.08
2022-09-27T07:33:13.998Z,0.85
2022-09-27T07:36:16.133Z,0.90
2022-09-27T07:39:21.974Z,0.80
2022-09-27T07:42:24.090Z,0.85
2022-09-27T07:45:28.111Z,1.00
2022-09-27T07:52:24.895Z,0.50
2022-09-27T07:56:05.019Z,0.82
2022-09-27T07:59:08.349Z,1.40
2022-09-27T08:02:15.229Z,1.10
2022-09-27T08:05:18.065Z,1.10
2022-09-27T08:08:19.901Z,1.10
2022-09-27T08:11:24.134Z,0.98
2022-09-27T08:14:26.049Z,1.40
2022-09-27T08:17:28.793Z,1.20
2022-09-27T08:21:00.612Z,1.05
2022-09-27T08:24:12.902Z,0.90
2022-09-27T08:27:33.326Z,0.90
2022-09-27T08:30:38.411Z,0.90
2022-09-27T08:33:41.920Z,0.93
2022-09-27T08:36:44.856Z,1.17
2022-09-27T08:39:48.100Z,1.20
2022-09-27T08:43:17.800Z,0.95
2022-09-27T08:46:44.113Z,1.00
2022-09-27T08:49:51.338Z,1.30
2022-09-27T08:53:22.609Z,1.35
2022-09-27T08:56:24.718Z,1.00
2022-09-27T08:59:30.691Z,0.68
2022-09-27T09:02:32.963Z,1.00
2022-09-27T09:05:35.594Z,1.17
2022-09-27T09:09:15.075Z,0.90
2022-09-27T09:12:51.991Z,1.00
2022-09-27T09:16:13.884Z,1.50
2022-09-27T09:19:32.828Z,0.90
2022-09-27T09:23:08.361Z,1.30
2022-09-27T09:26:28.032Z,1.60
2022-09-27T09:29:39.146Z,1.15
2022-09-27T09:33:24.589Z,1.08
2022-09-27T09:36:47.207Z,1.08
2022-09-27T09:39:57.014Z,1.17
2022-09-27T09:43:16.821Z,1.48
2022-09-27T09:46:36.733Z,1.10
2022-09-27T09:49:44.593Z,1.52
2022-09-27T09:52:59.396Z,1.38
2022-09-27T09:56:12.529Z,1.00
2022-09-27T09:59:26.703Z,1.10
2022-09-27T10:02:35.664Z,1.17
2022-09-27T10:05:45.370Z,1.50
2022-09-27T10:08:47.524Z,1.45
2022-09-27T10:12:15.644Z,1.35
2022-09-27T10:15:24.852Z,1.38
2022-09-27T10:18:28.301Z,0.95
2022-09-27T10:21:30.847Z,1.50
2022-09-27T10:25:01.760Z,1.05
2022-09-27T10:28:38.026Z,0.75
2022-09-27T10:31:45.989Z,1.30
2022-09-27T10:34:51.630Z,1.10
2022-09-27T10:37:54.950Z,1.00
2022-09-27T10:41:41.422Z,0.95
2022-09-27T10:48:22.794Z,1.27
2022-09-27T10:51:31.527Z,1.20
2022-09-27T10:54:39.688Z,0.90
2022-09-27T10:57:48.308Z,1.30
2022-09-27T11:01:08.266Z,1.10
2022-09-27T11:04:38.584Z,1.33
2022-09-27T11:07:55.025Z,1.10
2022-09-27T11:11:06.682Z,1.23
2022-09-27T11:14:25.154Z,1.23
2022-09-27T11:17:47.415Z,1.10
2022-09-27T11:21:27.086Z,0.90
2022-09-27T11:24:54.662Z,1.17
2022-09-27T11:28:02.410Z,1.58
2022-09-27T11:31:48.519Z,1.10
2022-09-27T11:35:06.448Z,1.10
2022-09-27T11:38:52.876Z,1.30
2022-09-27T11:42:28.360Z,1.30
2022-09-27T11:49:58.489Z,1.05
2022-09-27T11:53:26.590Z,1.73
2022-09-27T11:57:12.747Z,1.58
2022-09-27T12:00:17.940Z,1.20
2022-09-27T12:03:26.677Z,1.55
2022-09-27T12:06:50.378Z,1.80
2022-09-27T12:10:01.218Z,1.80
2022-09-27T12:13:04.764Z,1.58
2022-09-27T12:16:08.060Z,2.05
2022-09-27T12:19:28.675Z,1.42
2022-09-27T12:23:00.881Z,1.65
2022-09-27T12:26:24.011Z,1.90
2022-09-27T12:29:31.580Z,1.45
2022-09-27T12:35:47.759Z,1.40
2022-09-27T12:39:01.966Z,1.90
2022-09-27T12:42:34.366Z,1.65
2022-09-27T12:46:17.863Z,1.40
2022-09-27T12:49:48.119Z,1.60
2022-09-27T12:52:59.296Z,2.00
2022-09-27T12:56:23.328Z,1.60
2022-09-27T12:59:43.920Z,1.83
2022-09-27T13:03:25.057Z,1.63
2022-09-27T13:06:58.318Z,1.85
2022-09-27T13:10:20.680Z,1.33
2022-09-27T13:13:26.310Z,1.30
2022-09-27T13:16:28.748Z,1.63
2022-09-27T13:19:42.474Z,1.80
2022-09-27T13:22:46.004Z,1.67
2022-09-27T13:26:03.881Z,1.90
2022-09-27T13:29:28.510Z,1.63
2022-09-27T13:32:36.965Z,1.83
2022-09-27T13:35:38.843Z,7.95
2022-09-27T13:39:14.098Z,11.32
2022-09-27T13:42:40.926Z,10.13
2022-09-27T13:45:57.020Z,8.27
2022-09-27T13:49:15.497Z,5.97
2022-09-27T13:52:40.034Z,5.45
2022-09-27T13:55:53.873Z,4.95
2022-09-27T13:59:14.791Z,4.60
2022-09-27T14:02:29.035Z,4.32
2022-09-27T14:05:54.592Z,3.90
2022-09-27T14:08:59.657Z,4.10
2022-09-27T14:12:08.754Z,3.20
2022-09-27T14:15:20.782Z,3.10
2022-09-27T14:18:23.404Z,3.15
2022-09-27T14:21:31.031Z,3.00
2022-09-27T14:24:55.893Z,3.13
2022-09-27T14:28:40.114Z,3.13
2022-09-27T14:32:03.291Z,3.08
2022-09-27T14:35:42.270Z,3.05
2022-09-27T14:38:44.138Z,2.55
2022-09-27T14:41:58.862Z,2.83
2022-09-27T14:45:25.538Z,2.60
2022-09-27T14:48:28.862Z,2.55
2022-09-27T14:51:32.543Z,2.60
2022-09-27T14:54:34.254Z,2.33
2022-09-27T14:57:37.193Z,2.42
2022-09-27T15:00:41.327Z,2.90
2022-09-27T15:03:45.259Z,2.85
2022-09-27T15:06:47.843Z,2.15
2022-09-27T15:09:51.053Z,2.17
2022-09-27T15:12:57.768Z,2.85
2022-09-27T15:16:00.716Z,2.30
2022-09-27T15:19:26.962Z,2.08
2022-09-27T15:22:59.169Z,2.30
2022-09-27T15:26:35.856Z,2.25
2022-09-27T15:29:38.023Z,2.20
2022-09-27T15:32:39.805Z,2.22
2022-09-27T15:35:50.504Z,1.77
2022-09-27T15:39:08.532Z,2.40
2022-09-27T15:45:36.371Z,1.83
2022-09-27T15:48:38.082Z,2.83
2022-09-27T15:51:51.825Z,4.82
2022-09-27T15:54:53.518Z,3.72
2022-09-27T15:58:08.264Z,3.10
2022-09-27T16:01:18.682Z,2.88
2022-09-27T16:04:20.417Z,2.30
2022-09-27T16:07:22.603Z,2.65
2022-09-27T16:10:37.609Z,2.38
2022-09-27T16:13:39.348Z,2.10
2022-09-27T16:16:42.876Z,2.15
2022-09-27T16:19:44.581Z,1.92
2022-09-27T16:22:46.288Z,1.83
2022-09-27T16:25:47.997Z,1.95
2022-09-27T16:28:50.372Z,1.88
2022-09-27T16:31:53.553Z,2.00
2022-09-27T16:34:55.486Z,1.95
2022-09-27T16:37:58.343Z,1.98
2022-09-27T16:41:03.642Z,1.73
2022-09-27T16:44:13.436Z,1.83
2022-09-27T16:47:15.206Z,2.10
2022-09-27T16:50:35.492Z,2.38
2022-09-27T16:53:37.173Z,1.70
2022-09-27T16:56:38.881Z,1.70
2022-09-27T16:59:40.587Z,1.80
2022-09-27T17:02:47.031Z,1.77
2022-09-27T17:05:48.848Z,1.67
2022-09-27T17:08:50.808Z,1.98
2022-09-27T17:11:52.819Z,1.40
2022-09-27T17:14:54.511Z,1.60
2022-09-27T17:17:56.260Z,1.75
2022-09-27T17:21:03.355Z,1.55
2022-09-27T17:24:06.009Z,1.73
2022-09-27T17:27:07.882Z,1.77
2022-09-27T17:30:10.025Z,1.98
2022-09-27T17:33:11.793Z,1.98
2022-09-27T17:36:19.159Z,1.65
2022-09-27T17:39:22.302Z,7.13
2022-09-27T17:42:25.258Z,6.10
2022-09-27T17:45:26.955Z,4.00
2022-09-27T17:48:47.154Z,3.63
2022-09-27T17:51:51.233Z,3.55
2022-09-27T17:54:55.532Z,3.40
2022-09-27T17:57:57.280Z,3.17
2022-09-27T18:01:04.149Z,3.40
2022-09-27T18:04:09.735Z,2.88
2022-09-27T18:07:14.670Z,2.50
2022-09-27T18:10:17.640Z,2.85
2022-09-27T18:13:19.521Z,2.63
2022-09-27T18:16:22.154Z,2.55
2022-09-27T18:19:26.985Z,2.83
2022-09-27T18:22:30.943Z,2.42
2022-09-27T18:25:38.991Z,2.17
2022-09-27T18:28:42.196Z,3.15
2022-09-27T18:31:48.503Z,2.30
2022-09-27T18:34:50.741Z,2.60
2022-09-27T18:37:53.131Z,2.30
2022-09-27T18:40:57.596Z,2.53
2022-09-27T18:44:01.731Z,2.30
2022-09-27T18:47:03.716Z,2.42
2022-09-27T18:50:05.820Z,2.15
2022-09-27T18:53:08.824Z,2.40
2022-09-27T18:56:15.784Z,2.67
2022-09-27T18:59:20.630Z,2.58
2022-09-27T19:02:22.324Z,1.85
2022-09-27T19:05:24.216Z,2.53
2022-09-27T19:08:26.767Z,2.60
2022-09-27T19:11:28.915Z,2.58
2022-09-27T19:14:30.690Z,2.10
2022-09-27T19:17:32.427Z,2.25
2022-09-27T19:20:34.522Z,2.20
2022-09-27T19:23:36.636Z,2.00
2022-09-27T19:26:38.605Z,2.38
2022-09-27T19:29:40.504Z,2.13
2022-09-27T19:32:42.211Z,2.17
2022-09-27T19:35:43.962Z,2.33
2022-09-27T19:38:46.826Z,2.30
2022-09-27T19:41:48.600Z,2.22
2022-09-27T19:44:50.275Z,2.08
2022-09-27T19:47:51.955Z,2.58
2022-09-27T19:50:58.485Z,2.60
2022-09-27T19:54:00.265Z,2.20
2022-09-27T19:57:01.926Z,2.10
2022-09-27T20:00:04.755Z,1.90
2022-09-27T20:03:06.524Z,1.90
2022-09-27T20:06:11.099Z,2.20
2022-09-27T20:09:13.157Z,1.90
2022-09-27T20:12:14.886Z,2.20
2022-09-27T20:15:17.744Z,1.75
2022-09-27T20:18:19.437Z,2.10
2022-09-27T20:21:23.083Z,2.10
2022-09-27T20:24:24.780Z,1.90
2022-09-27T20:27:26.452Z,2.17
2022-09-27T20:30:28.291Z,2.10
2022-09-27T20:33:42.474Z,1.90
2022-09-27T20:36:44.634Z,1.95
2022-09-27T20:39:46.296Z,2.33
2022-09-27T20:42:48.211Z,1.73
2022-09-27T20:45:49.996Z,2.30
2022-09-27T20:49:03.289Z,1.90
2022-09-27T20:52:05.012Z,2.08
2022-09-27T20:55:07.212Z,2.20
2022-09-27T20:58:08.929Z,2.50
2022-09-27T21:01:10.773Z,1.70
2022-09-27T21:04:14.727Z,2.08
2022-09-27T21:07:16.547Z,2.25
2022-09-27T21:10:18.214Z,2.20
2022-09-27T21:13:20.736Z,1.90
2022-09-27T21:16:25.019Z,2.28
2022-09-27T21:19:26.798Z,1.88
2022-09-27T21:22:28.622Z,2.00
2022-09-27T21:25:30.312Z,2.00
2022-09-27T21:28:36.811Z,2.15
2022-09-27T21:31:38.638Z,1.55
2022-09-27T21:34:40.398Z,1.48
2022-09-27T21:37:43.874Z,1.65
2022-09-27T21:40:54.762Z,1.55
2022-09-27T21:43:57.310Z,1.80
2022-09-27T21:46:59.038Z,1.60
2022-09-27T21:50:00.774Z,1.88
2022-09-27T21:53:02.445Z,1.65
2022-09-27T21:56:05.358Z,1.70
2022-09-27T21:59:10.229Z,1.90
2022-09-27T22:02:12.080Z,1.60
2022-09-27T22:05:13.886Z,1.35
2022-09-27T22:08:19.506Z,1.55
2022-09-27T22:11:25.462Z,1.50
2022-09-27T22:14:27.154Z,1.98
2022-09-27T22:17:28.835Z,1.88
2022-09-27T22:20:32.255Z,1.58
2022-09-27T22:23:34.694Z,1.60
2022-09-27T22:26:38.565Z,1.60
2022-09-27T22:29:40.245Z,1.65
2022-09-27T22:32:45.654Z,2.08
2022-09-27T22:35:48.358Z,1.60
2022-09-27T22:38:51.215Z,1.55
2022-09-27T22:41:52.918Z,1.63
2022-09-27T22:44:54.597Z,1.60
2022-09-27T22:47:56.274Z,1.85
2022-09-27T22:50:59.038Z,2.05
2022-09-27T22:54:00.843Z,1.48
2022-09-27T22:57:03.011Z,1.60
2022-09-27T23:00:05.385Z,1.75
2022-09-27T23:03:07.090Z,1.50
2022-09-27T23:06:09.682Z,1.50
2022-09-27T23:09:11.510Z,1.65
2022-09-27T23:12:13.635Z,1.42
2022-09-27T23:15:15.442Z,2.03
2022-09-27T23:18:17.121Z,1.55
2022-09-27T23:21:18.821Z,1.40
2022-09-27T23:24:20.732Z,1.90
2022-09-27T23:27:41.947Z,1.50
2022-09-27T23:30:43.622Z,1.30
2022-09-27T23:33:48.484Z,1.60
2022-09-27T23:36:50.478Z,1.50
2022-09-27T23:39:52.202Z,1.42
2022-09-27T23:42:53.985Z,1.40
2022-09-27T23:45:57.183Z,1.45
2022-09-27T23:48:59.047Z,1.30
2022-09-27T23:52:01.160Z,1.55
2022-09-27T23:55:03.047Z,1.60
2022-09-27T23:58:04.762Z,1.48
